Time;durP1;ratioP1;P1;durP2;ratioP2;P2;SDS_P1;SDS_P2;PMS_P1;PMS_P2;Temp;Humidity;BMP_temperature;BMP_pressure;BME280_temperature;BME280_humidity;BME280_pressure;Samples;Min_cycle;Max_cycle;Signal;HPM_P1;HPM_P2
2023/09/08 00:02:26;;;;;;;18.63;12.95;;;;;;;21.25;58.96;100209.31;4966042;28;20456;-50
2023/09/08 00:04:53;;;;;;;18.10;10.63;;;;;;;21.22;59.46;100212.09;4970333;28;20086;-49
2023/09/08 00:07:20;;;;;;;18.55;10.27;;;;;;;21.19;59.78;100214.84;4948895;28;20083;-49
2023/09/08 00:09:47;;;;;;;16.48;10.13;;;;;;;21.16;59.03;100207.06;4965905;28;20190;-49
2023/09/08 00:12:14;;;;;;;20.40;10.07;;;;;;;21.12;58.99;100194.97;4967446;28;20047;-46
2023/09/08 00:14:41;;;;;;;17.67;10.10;;;;;;;21.11;59.24;100206.44;4963297;28;20051;-45
2023/09/08 00:17:07;;;;;;;21.45;11.18;;;;;;;21.10;59.41;100204.75;4965367;28;20047;-49
2023/09/08 00:19:34;;;;;;;20.60;10.82;;;;;;;21.09;59.22;100214.41;4968376;28;20055;-44
2023/09/08 00:22:01;;;;;;;19.50;10.45;;;;;;;21.06;59.53;100210.13;4972501;28;20061;-47
2023/09/08 00:24:29;;;;;;;17.75;9.60;;;;;;;21.04;59.38;100206.69;4966566;28;20500;-46
2023/09/08 00:26:57;;;;;;;16.08;10.20;;;;;;;21.04;59.57;100211.97;4970017;28;20050;-48
2023/09/08 00:29:26;;;;;;;18.83;10.68;;;;;;;21.02;59.98;100211.19;4978345;28;20051;-45
2023/09/08 00:31:55;;;;;;;21.48;11.45;;;;;;;21.00;59.93;100209.53;4969780;28;20039;-48
2023/09/08 00:34:23;;;;;;;19.58;11.40;;;;;;;20.95;59.68;100209.75;4969049;28;20161;-47
2023/09/08 00:36:52;;;;;;;18.88;12.05;;;;;;;20.90;60.00;100214.34;4969028;28;20138;-47
2023/09/08 00:39:20;;;;;;;18.70;12.63;;;;;;;20.85;60.20;100221.56;4969530;28;20504;-45
2023/09/08 00:41:49;;;;;;;23.38;12.13;;;;;;;20.80;60.23;100214.72;4969148;28;20070;-46
2023/09/08 00:44:18;;;;;;;17.65;11.32;;;;;;;20.76;59.80;100213.13;4968489;28;20050;-49
2023/09/08 00:46:46;;;;;;;20.58;11.60;;;;;;;20.74;60.10;100209.69;4971695;28;20043;-47
2023/09/08 00:49:14;;;;;;;19.98;11.93;;;;;;;20.72;60.53;100211.56;4968838;28;20043;-53
2023/09/08 00:51:43;;;;;;;21.10;11.77;;;;;;;20.71;60.63;100209.88;4967628;28;20074;-49
2023/09/08 00:54:12;;;;;;;20.55;10.95;;;;;;;20.68;60.54;100210.81;4968198;28;20047;-47
2023/09/08 00:56:42;;;;;;;20.60;10.60;;;;;;;20.66;60.52;100215.31;4959664;28;20606;-46
2023/09/08 00:59:10;;;;;;;19.65;10.93;;;;;;;20.63;60.38;100211.94;4961857;28;20059;-50
2023/09/08 01:01:39;;;;;;;19.52;11.65;;;;;;;20.60;60.82;100202.41;4962645;28;20054;-51
2023/09/08 01:04:07;;;;;;;18.60;10.82;;;;;;;20.58;60.78;100203.38;4961785;28;20086;-47
2023/09/08 01:06:37;;;;;;;18.70;10.82;;;;;;;20.54;60.47;100203.50;4958532;28;20548;-48
2023/09/08 01:09:05;;;;;;;22.88;11.55;;;;;;;20.51;61.06;100198.41;4961131;28;20050;-47
2023/09/08 01:11:32;;;;;;;19.30;11.95;;;;;;;20.46;60.92;100189.84;4960917;28;20042;-51
2023/09/08 01:13:59;;;;;;;19.83;10.93;;;;;;;20.40;60.85;100184.84;4961819;28;20054;-47
2023/09/08 01:16:25;;;;;;;22.08;11.68;;;;;;;20.36;61.46;100189.38;4958248;28;20058;-46
2023/09/08 01:18:53;;;;;;;22.90;11.57;;;;;;;20.32;61.06;100189.53;4959652;28;20672;-44
2023/09/08 01:24:44;;;;;;;20.38;11.88;;;;;;;20.14;61.28;100194.66;5027658;28;20417;-50
2023/09/08 01:27:14;;;;;;;18.52;11.02;;;;;;;20.18;61.33;100196.25;5011577;28;20062;-48
2023/09/08 01:29:42;;;;;;;19.45;11.00;;;;;;;20.15;61.30;100196.34;5012156;28;20060;-46
2023/09/08 01:32:10;;;;;;;23.10;10.80;;;;;;;20.11;60.95;100184.25;5014390;28;20073;-45
2023/09/08 01:34:39;;;;;;;19.33;10.95;;;;;;;20.09;61.74;100196.63;5017433;28;20415;-49
2023/09/08 01:37:07;;;;;;;19.95;11.63;;;;;;;20.06;61.59;100191.47;5017364;28;20546;-45
2023/09/08 01:39:34;;;;;;;18.52;10.52;;;;;;;20.01;61.68;100195.16;5015622;28;20054;-48
2023/09/08 01:42:00;;;;;;;19.63;12.30;;;;;;;19.99;61.58;100196.97;5013288;28;20042;-49
2023/09/08 01:44:27;;;;;;;16.98;10.88;;;;;;;19.95;61.63;100194.50;5012694;28;22075;-51
2023/09/08 01:46:56;;;;;;;20.50;10.35;;;;;;;19.92;61.76;100192.84;5011299;28;20060;-47
2023/09/08 01:49:24;;;;;;;20.70;11.90;;;;;;;19.90;61.60;100186.81;5014151;28;20052;-48
2023/09/08 01:51:52;;;;;;;17.52;10.52;;;;;;;19.87;61.87;100190.41;5013400;28;20042;-46
2023/09/08 01:54:18;;;;;;;16.13;10.65;;;;;;;19.84;61.84;100192.28;5014705;28;20063;-46
2023/09/08 01:56:45;;;;;;;17.60;10.27;;;;;;;19.81;61.67;100188.03;5013326;28;20597;-46
2023/09/08 01:59:11;;;;;;;18.13;10.57;;;;;;;19.80;61.76;100185.44;5010221;28;20053;-43
2023/09/08 02:01:38;;;;;;;18.00;11.60;;;;;;;19.77;61.94;100187.28;5016330;28;20045;-48
2023/09/08 02:04:05;;;;;;;20.30;11.20;;;;;;;19.75;61.78;100178.59;5004563;28;20132;-45
2023/09/08 02:06:32;;;;;;;18.75;10.27;;;;;;;19.73;62.04;100184.84;5016695;28;20129;-46
2023/09/08 02:08:59;;;;;;;18.30;10.82;;;;;;;19.71;62.03;100182.28;5017966;28;20038;-45
2023/09/08 02:11:26;;;;;;;17.08;10.00;;;;;;;19.69;61.79;100188.50;5020584;28;20057;-49
2023/09/08 02:13:53;;;;;;;20.02;10.80;;;;;;;19.67;62.33;100191.19;5022805;28;20048;-49
2023/09/08 02:16:23;;;;;;;18.95;10.95;;;;;;;19.65;62.37;100182.50;5015501;28;20053;-46
2023/09/08 02:18:50;;;;;;;16.58;11.20;;;;;;;19.64;62.09;100186.03;5018954;28;20511;-46
2023/09/08 02:21:17;;;;;;;20.67;11.93;;;;;;;19.60;62.46;100181.81;5017732;28;20050;-48
2023/09/08 02:23:43;;;;;;;18.95;11.50;;;;;;;19.58;62.45;100175.75;5028076;28;20144;-46
2023/09/08 02:26:11;;;;;;;20.92;11.52;;;;;;;19.56;62.79;100180.22;5016309;28;20141;-42
2023/09/08 02:28:38;;;;;;;20.25;12.02;;;;;;;19.53;62.12;100176.78;5019457;28;20501;-45
2023/09/08 02:31:05;;;;;;;20.45;12.50;;;;;;;19.50;62.44;100181.31;5016468;28;20089;-42
2023/09/08 02:33:32;;;;;;;19.52;12.48;;;;;;;19.46;62.18;100188.47;5014274;28;20046;-44
2023/09/08 02:36:03;;;;;;;19.25;11.55;;;;;;;19.42;62.48;100186.84;5003813;28;20141;-45
2023/09/08 02:38:30;;;;;;;17.65;10.68;;;;;;;19.38;62.58;100190.50;5006293;28;20061;-45
2023/09/08 02:40:57;;;;;;;18.75;11.40;;;;;;;19.36;62.50;100184.47;5008055;28;20049;-51
2023/09/08 02:43:24;;;;;;;23.45;12.57;;;;;;;19.33;62.60;100181.97;5004345;28;20176;-48
2023/09/08 02:45:50;;;;;;;22.33;12.88;;;;;;;19.29;62.97;100190.84;5004150;28;20052;-47
2023/09/08 02:48:18;;;;;;;22.25;12.68;;;;;;;19.27;62.58;100194.41;5005333;28;20046;-50
2023/09/08 02:50:45;;;;;;;25.77;13.43;;;;;;;19.23;63.08;100187.56;4998277;28;20056;-48
2023/09/08 02:53:11;;;;;;;23.27;12.68;;;;;;;19.22;63.18;100196.31;5002885;28;20056;-45
2023/09/08 02:55:38;;;;;;;22.95;13.18;;;;;;;19.20;63.00;100189.44;5007971;28;20084;-50
2023/09/08 02:58:05;;;;;;;20.98;11.75;;;;;;;19.17;63.01;100193.03;5004485;28;20060;-42
2023/09/08 03:00:32;;;;;;;19.30;12.63;;;;;;;19.14;63.31;100190.50;5004966;28;20721;-49
2023/09/08 03:02:59;;;;;;;22.90;13.43;;;;;;;19.11;63.33;100182.72;5003037;28;20049;-47
2023/09/08 03:05:25;;;;;;;26.00;14.10;;;;;;;19.09;63.62;100189.81;4996089;28;20046;-50
2023/09/08 03:07:52;;;;;;;24.58;14.35;;;;;;;19.05;63.35;100190.81;5005576;28;20065;-47
2023/09/08 03:10:19;;;;;;;29.10;15.40;;;;;;;19.05;63.38;100194.28;5002244;28;20058;-48
2023/09/08 03:12:46;;;;;;;26.67;16.45;;;;;;;19.02;63.87;100189.16;5001189;28;20052;-45
2023/09/08 03:15:13;;;;;;;28.15;15.88;;;;;;;18.98;64.21;100193.66;5001553;28;20050;-48
2023/09/08 03:17:40;;;;;;;29.88;16.20;;;;;;;18.96;63.88;100189.38;5004754;28;20042;-45
2023/09/08 03:20:09;;;;;;;29.80;15.43;;;;;;;18.94;63.90;100185.94;4999846;28;20496;-47
2023/09/08 03:22:36;;;;;;;;;;;;;;;18.70;64.76;100193.75;5005112;28;20115;-51
2023/09/08 03:25:03;;;;;;;26.77;15.98;;;;;;;18.84;64.03;100190.66;5000846;28;19956;-49
2023/09/08 03:27:30;;;;;;;31.13;16.15;;;;;;;18.84;63.66;100195.91;5008249;28;20049;-48
2023/09/08 03:29:57;;;;;;;28.48;15.65;;;;;;;18.83;63.99;100194.19;5008248;28;20048;-49
2023/09/08 03:32:25;;;;;;;31.10;16.88;;;;;;;18.83;64.13;100194.19;5005630;28;20045;-51
2023/09/08 03:34:52;;;;;;;32.75;16.65;;;;;;;18.80;63.67;100187.28;5005132;28;20050;-46
2023/09/08 03:37:19;;;;;;;31.15;16.17;;;;;;;18.80;63.70;100183.78;5006778;28;20503;-48
2023/09/08 03:39:46;;;;;;;27.20;14.40;;;;;;;18.79;64.13;100187.34;5007789;28;20057;-51
2023/09/08 03:42:13;;;;;;;29.75;14.65;;;;;;;18.77;64.21;100182.13;5007133;28;20057;-49
2023/09/08 03:44:40;;;;;;;26.80;14.18;;;;;;;18.73;63.80;100185.78;5003391;28;20081;-47
2023/09/08 03:47:06;;;;;;;25.55;14.50;;;;;;;18.72;64.09;100191.94;4997506;28;20573;-49
2023/09/08 03:49:33;;;;;;;26.65;14.57;;;;;;;18.70;63.96;100189.38;5002028;28;20050;-49
2023/09/08 03:52:00;;;;;;;30.90;16.10;;;;;;;18.68;64.42;100185.94;5002674;28;20046;-45
2023/09/08 03:54:27;;;;;;;26.50;14.38;;;;;;;18.68;64.08;100190.34;5004520;28;20045;-50
2023/09/08 03:56:53;;;;;;;27.75;14.93;;;;;;;18.65;64.06;100196.56;5007591;28;20052;-43
2023/09/08 03:59:21;;;;;;;25.13;15.05;;;;;;;18.64;64.55;100194.81;5007194;28;20057;-53
2023/09/08 04:01:48;;;;;;;28.80;14.95;;;;;;;18.62;64.53;100194.03;5006421;28;20050;-49
2023/09/08 04:04:15;;;;;;;27.33;15.05;;;;;;;18.59;64.29;100186.25;5004920;28;20046;-46
2023/09/08 04:06:42;;;;;;;25.50;14.95;;;;;;;18.58;64.16;100192.44;5002875;28;20054;-47
2023/09/08 04:09:09;;;;;;;25.50;14.55;;;;;;;18.54;64.12;100188.19;5002496;28;20503;-49
2023/09/08 04:11:36;;;;;;;25.52;13.73;;;;;;;18.50;64.18;100188.28;5004093;28;20050;-46
2023/09/08 04:14:03;;;;;;;25.13;14.07;;;;;;;18.47;63.84;100198.00;5006265;28;20065;-47
2023/09/08 04:16:30;;;;;;;26.88;15.18;;;;;;;18.43;64.65;100186.78;5006024;28;20140;-47
2023/09/08 04:18:57;;;;;;;26.42;14.70;;;;;;;18.39;64.77;100187.78;5006079;28;20045;-46
2023/09/08 04:21:24;;;;;;;24.83;14.23;;;;;;;18.36;64.02;100183.50;4999052;28;20049;-51
2023/09/08 04:23:51;;;;;;;24.75;14.25;;;;;;;18.33;64.02;100187.97;4996815;28;20038;-44
2023/09/08 04:26:18;;;;;;;28.80;16.30;;;;;;;18.33;64.60;100185.34;5001898;28;20123;-43
2023/09/08 04:28:45;;;;;;;25.27;14.18;;;;;;;18.31;65.11;100188.03;5006786;28;20495;-44
2023/09/08 04:31:11;;;;;;;26.73;14.65;;;;;;;18.30;65.15;100185.50;5000915;28;20122;-45
2023/09/08 04:33:38;;;;;;;25.80;14.68;;;;;;;18.29;65.24;100189.00;5005502;28;20100;-43
2023/09/08 04:36:06;;;;;;;25.90;14.88;;;;;;;18.27;64.62;100188.19;4995942;28;20471;-45
2023/09/08 04:38:33;;;;;;;26.52;15.02;;;;;;;18.23;65.42;100188.28;4996432;28;20054;-45
2023/09/08 04:40:59;;;;;;;28.20;15.02;;;;;;;18.22;64.59;100189.22;5000850;28;20053;-43
2023/09/08 04:43:26;;;;;;;28.52;15.23;;;;;;;18.20;64.62;100195.38;5001197;28;20057;-42
2023/09/08 04:45:52;;;;;;;25.70;15.25;;;;;;;18.19;65.01;100199.78;4997811;28;20510;-47
2023/09/08 04:48:19;;;;;;;28.08;15.82;;;;;;;18.16;65.34;100197.25;5003385;28;20048;-48
2023/09/08 04:50:46;;;;;;;25.80;14.60;;;;;;;18.13;64.70;100199.97;5003318;28;20042;-45
2023/09/08 04:53:12;;;;;;;28.55;14.98;;;;;;;18.11;65.38;100201.81;5002521;28;21775;-47
2023/09/08 04:55:39;;;;;;;30.60;15.13;;;;;;;18.11;65.75;100201.81;5004344;28;20068;-48
2023/09/08 04:58:06;;;;;;;29.60;15.20;;;;;;;18.08;65.36;100204.47;5004434;28;20056;-51
2023/09/08 05:00:33;;;;;;;25.70;14.52;;;;;;;18.07;65.66;100200.16;5004096;28;20046;-49
2023/09/08 05:03:00;;;;;;;28.42;15.75;;;;;;;18.05;65.76;100201.94;5005500;28;20129;-46
2023/09/08 05:05:27;;;;;;;28.30;14.77;;;;;;;18.03;64.95;100203.78;5001254;28;20053;-44
2023/09/08 05:07:56;;;;;;;28.88;15.98;;;;;;;18.03;65.10;100198.53;5010529;28;20073;-44
2023/09/08 05:10:23;;;;;;;25.23;14.05;;;;;;;18.01;65.10;100200.34;5001764;28;20706;-51
2023/09/08 05:12:50;;;;;;;28.73;16.33;;;;;;;17.99;65.89;100188.16;5001930;28;20071;-45
2023/09/08 05:15:17;;;;;;;33.58;16.92;;;;;;;17.99;65.95;100192.53;5003850;28;20062;-49
2023/09/08 05:17:44;;;;;;;29.15;16.38;;;;;;;17.96;65.30;100196.09;5001377;28;20050;-42
2023/09/08 05:20:11;;;;;;;29.83;15.65;;;;;;;17.93;65.92;100198.81;5003354;28;20050;-50
2023/09/08 05:22:37;;;;;;;30.75;16.35;;;;;;;17.91;66.44;100202.38;5004242;28;20054;-44
2023/09/08 05:25:04;;;;;;;32.20;17.98;;;;;;;17.92;65.85;100206.72;5000164;28;20042;-43
2023/09/08 05:27:31;;;;;;;31.17;17.15;;;;;;;17.90;66.06;100212.00;4997026;28;20074;-48
2023/09/08 05:29:58;;;;;;;33.28;17.98;;;;;;;17.90;66.03;100206.75;5001525;28;20042;-48
2023/09/08 05:32:25;;;;;;;38.95;19.48;;;;;;;17.89;66.94;100205.06;5002064;28;20411;-47
2023/09/08 05:34:53;;;;;;;39.47;19.38;;;;;;;17.90;66.38;100204.13;5003004;28;20072;-48
2023/09/08 05:37:20;;;;;;;40.25;19.33;;;;;;;17.90;66.51;100204.13;5006484;28;20414;-52
2023/09/08 05:39:47;;;;;;;37.35;18.02;;;;;;;17.90;66.25;100212.00;5002082;28;20104;-44
2023/09/08 05:42:14;;;;;;;32.97;18.63;;;;;;;17.91;66.69;100212.88;5005020;28;20073;-42
2023/09/08 05:44:41;;;;;;;33.97;17.67;;;;;;;17.93;65.81;100216.31;5005129;28;20469;-47
2023/09/08 05:47:08;;;;;;;35.67;18.70;;;;;;;17.96;66.92;100206.59;5003620;28;20061;-44
2023/09/08 05:49:35;;;;;;;32.40;18.10;;;;;;;17.98;66.91;100211.78;5002626;28;20097;-49
2023/09/08 05:52:03;;;;;;;36.92;18.92;;;;;;;17.99;66.91;100208.25;5002976;28;20046;-48
2023/09/08 05:54:30;;;;;;;33.83;17.55;;;;;;;18.02;66.90;100213.41;4998891;28;20043;-45
2023/09/08 05:56:57;;;;;;;36.25;18.35;;;;;;;18.06;67.01;100214.16;4996713;28;20046;-53
2023/09/08 05:59:24;;;;;;;33.10;16.67;;;;;;;18.08;66.29;100214.97;4998692;28;20054;-47
2023/09/08 06:01:50;;;;;;;38.22;18.25;;;;;;;18.11;67.20;100228.00;4999372;28;20050;-46
2023/09/08 06:04:17;;;;;;;35.22;20.25;;;;;;;18.14;66.87;100220.06;5004872;28;20054;-45
2023/09/08 06:06:44;;;;;;;33.45;17.85;;;;;;;18.18;67.46;100224.28;5000121;28;20050;-46
2023/09/08 06:09:12;;;;;;;38.03;18.80;;;;;;;18.24;66.66;100220.63;4999036;28;20073;-45
2023/09/08 06:11:39;;;;;;;34.30;19.40;;;;;;;18.28;67.13;100224.00;5008803;28;20503;-46
2023/09/08 06:14:05;;;;;;;33.70;18.48;;;;;;;18.33;66.90;100229.94;5003731;28;20096;-46
2023/09/08 06:16:32;;;;;;;33.55;18.33;;;;;;;18.37;66.67;100228.91;5007226;28;20057;-50
2023/09/08 06:19:00;;;;;;;35.13;18.63;;;;;;;18.42;67.00;100232.28;5003402;28;20047;-45
2023/09/08 06:21:27;;;;;;;31.67;17.20;;;;;;;18.47;67.47;100232.97;5004315;28;20053;-47
2023/09/08 06:23:53;;;;;;;39.72;20.15;;;;;;;18.55;67.23;100232.72;5002494;28;20045;-48
2023/09/08 06:26:20;;;;;;;36.65;18.90;;;;;;;18.58;66.59;100237.84;5006134;28;20577;-46
2023/09/08 06:28:47;;;;;;;39.50;20.17;;;;;;;18.60;67.22;100236.06;4992961;28;20299;-48
2023/09/08 06:31:14;;;;;;;32.47;18.40;;;;;;;18.62;66.32;100228.97;4994771;28;20495;-50
2023/09/08 06:33:41;;;;;;;34.42;19.95;;;;;;;18.65;66.75;100233.28;4993713;28;20045;-47
2023/09/08 06:36:08;;;;;;;35.10;19.42;;;;;;;18.66;66.44;100240.22;4996012;28;20046;-48
2023/09/08 06:38:35;;;;;;;37.35;18.33;;;;;;;18.68;66.94;100234.94;4995572;28;20038;-51
2023/09/08 06:41:09;;;;;;;38.67;19.23;;;;;;;18.69;66.30;100245.38;4996485;28;20049;-45
2023/09/08 06:43:36;;;;;;;35.20;19.48;;;;;;;18.70;66.93;100247.09;4999470;28;20050;-49
2023/09/08 06:46:03;;;;;;;38.83;20.35;;;;;;;18.71;66.52;100254.03;5000643;28;20050;-52
2023/09/08 06:48:30;;;;;;;38.33;20.17;;;;;;;18.75;66.34;100260.06;5003764;28;20101;-45
2023/09/08 06:50:56;;;;;;;42.17;20.80;;;;;;;18.78;66.56;100253.84;4993920;28;20041;-48
2023/09/08 06:53:24;;;;;;;40.38;20.55;;;;;;;18.81;66.95;100261.63;4994679;28;20046;-51
2023/09/08 06:55:51;;;;;;;48.90;23.92;;;;;;;18.85;66.37;100263.22;4992080;28;20182;-51
2023/09/08 06:58:18;;;;;;;46.72;23.17;;;;;;;18.86;67.03;100257.06;4995480;28;20054;-45
2023/09/08 07:00:45;;;;;;;49.80;25.80;;;;;;;18.88;67.26;100263.13;4997966;28;20042;-48
2023/09/08 07:03:12;;;;;;;51.53;24.20;;;;;;;18.88;66.91;100271.00;4998638;28;20061;-45
2023/09/08 07:05:39;;;;;;;49.67;23.52;;;;;;;18.92;67.03;100267.38;4996976;28;20054;-44
2023/09/08 07:08:06;;;;;;;46.00;23.27;;;;;;;18.95;66.77;100261.97;4997171;28;20575;-47
2023/09/08 07:10:33;;;;;;;46.20;24.65;;;;;;;18.98;67.22;100261.88;4996996;28;20050;-44
2023/09/08 07:13:00;;;;;;;50.42;25.42;;;;;;;19.08;67.10;100267.72;4993424;28;20053;-44
2023/09/08 07:15:26;;;;;;;47.22;24.10;;;;;;;19.25;67.06;100275.00;4996192;28;20522;-48
2023/09/08 07:17:53;;;;;;;43.67;23.45;;;;;;;19.55;67.23;100275.72;4996233;28;20085;-44
2023/09/08 07:20:20;;;;;;;44.70;24.02;;;;;;;19.98;66.54;100279.34;4995538;28;20129;-44
2023/09/08 07:22:47;;;;;;;47.63;23.92;;;;;;;20.50;66.47;100283.50;4998631;28;20141;-46
2023/09/08 07:25:14;;;;;;;40.08;22.42;;;;;;;21.04;65.98;100288.31;4999398;28;20046;-42
2023/09/08 07:27:40;;;;;;;38.67;20.85;;;;;;;21.48;64.56;100281.16;4995200;28;20054;-45
2023/09/08 07:30:07;;;;;;;32.38;19.23;;;;;;;21.86;63.95;100283.03;4998579;28;20058;-52
2023/09/08 07:32:34;;;;;;;39.25;19.27;;;;;;;22.25;63.72;100290.91;4994642;28;20050;-47
2023/09/08 07:35:01;;;;;;;36.67;19.98;;;;;;;22.69;62.72;100287.03;4993072;28;20050;-48
2023/09/08 07:37:28;;;;;;;36.92;20.60;;;;;;;23.13;61.92;100279.59;4987699;28;20057;-44
2023/09/08 07:39:55;;;;;;;35.03;19.50;;;;;;;23.45;60.97;100279.69;4998161;28;20038;-51
2023/09/08 07:42:21;;;;;;;34.83;18.83;;;;;;;23.66;60.58;100276.81;4993243;28;20042;-49
2023/09/08 07:44:48;;;;;;;34.40;19.17;;;;;;;23.74;59.62;100272.84;4998680;28;20077;-48
2023/09/08 07:47:15;;;;;;;34.55;20.02;;;;;;;23.85;59.43;100277.53;5005989;28;20131;-44
2023/09/08 07:49:45;;;;;;;35.00;18.73;;;;;;;24.05;59.96;100274.72;5007051;28;20073;-48
2023/09/08 07:52:12;;;;;;;40.30;20.98;;;;;;;24.35;59.13;100273.97;5003842;28;20434;-45
2023/09/08 07:54:38;;;;;;;32.70;17.98;;;;;;;24.64;59.05;100268.75;4998357;28;20116;-48
2023/09/08 07:57:05;;;;;;;37.47;18.80;;;;;;;24.96;58.45;100273.13;5004867;28;20054;-48
2023/09/08 07:59:32;;;;;;;34.22;19.08;;;;;;;25.21;57.77;100276.94;5000871;28;20045;-46
2023/09/08 08:02:03;;;;;;;33.78;19.23;;;;;;;25.52;57.12;100280.34;5000261;28;20054;-46
2023/09/08 08:04:30;;;;;;;34.85;19.23;;;;;;;25.86;56.74;100272.97;5000932;28;20038;-46
2023/09/08 08:06:56;;;;;;;32.67;19.77;;;;;;;26.16;56.33;100277.25;4995963;28;20137;-49
2023/09/08 08:09:23;;;;;;;36.38;18.98;;;;;;;26.44;55.55;100272.81;4996607;28;20080;-46
2023/09/08 08:11:50;;;;;;;35.63;20.08;;;;;;;26.67;54.55;100273.06;4998528;28;20067;-49
2023/09/08 08:14:17;;;;;;;32.45;17.55;;;;;;;26.92;54.18;100276.69;4999996;28;20050;-49
2023/09/08 08:16:43;;;;;;;33.08;19.05;;;;;;;27.20;54.12;100277.50;5002335;28;20054;-46
2023/09/08 08:19:10;;;;;;;31.48;18.55;;;;;;;27.38;53.11;100286.94;5006599;28;20471;-48
2023/09/08 08:21:37;;;;;;;29.13;17.40;;;;;;;27.49;53.09;100291.53;5001046;28;20038;-47
2023/09/08 08:24:05;;;;;;;32.92;19.00;;;;;;;27.59;52.70;100284.56;4998361;28;20550;-46
2023/09/08 08:26:32;;;;;;;33.42;19.58;;;;;;;27.60;52.18;100283.63;4995259;28;20542;-46
2023/09/08 08:28:59;;;;;;;32.25;18.20;;;;;;;27.54;52.93;100295.56;5004077;28;20206;-48
2023/09/08 08:31:26;;;;;;;28.95;18.33;;;;;;;27.38;51.87;100290.47;4997405;28;20418;-47
2023/09/08 08:33:53;;;;;;;32.92;19.30;;;;;;;27.27;53.06;100285.03;5003293;28;20074;-51
2023/09/08 08:36:20;;;;;;;31.63;17.83;;;;;;;27.26;52.93;100291.31;4999082;28;20081;-45
2023/09/08 08:38:47;;;;;;;30.42;17.92;;;;;;;27.26;52.90;100293.97;5003603;28;20056;-51
2023/09/08 08:41:13;;;;;;;32.95;18.38;;;;;;;27.26;52.72;100293.97;5001665;28;20066;-51
2023/09/08 08:43:43;;;;;;;31.40;19.27;;;;;;;27.28;51.98;100284.94;5008752;28;20077;-46
2023/09/08 08:46:10;;;;;;;;;;;;;;;27.35;52.54;100297.81;4997083;28;20611;-48
2023/09/08 08:48:37;;;;;;;35.15;17.38;;;;;;;27.37;52.60;100296.75;5003994;28;19957;-44
2023/09/08 08:51:05;;;;;;;32.58;18.35;;;;;;;27.34;52.66;100296.97;4999493;28;21917;-46
2023/09/08 08:53:33;;;;;;;29.73;17.42;;;;;;;27.31;52.46;100302.47;5000155;28;20056;-46
2023/09/08 08:56:00;;;;;;;33.72;20.58;;;;;;;27.28;52.75;100308.88;4997993;28;20042;-45
2023/09/08 08:58:28;;;;;;;30.83;18.20;;;;;;;27.27;52.70;100311.63;4998362;28;20411;-49
2023/09/08 09:00:59;;;;;;;34.22;18.80;;;;;;;27.26;52.74;100323.22;4995579;28;20082;-51
2023/09/08 09:03:28;;;;;;;26.55;18.20;;;;;;;27.26;52.43;100312.59;5000452;28;20609;-48
2023/09/08 09:05:55;;;;;;;24.77;15.95;;;;;;;27.32;52.44;100304.22;4998866;28;20073;-48
2023/09/08 09:08:23;;;;;;;28.42;16.85;;;;;;;27.34;52.48;100302.28;4998637;28;20049;-47
2023/09/08 09:10:52;;;;;;;30.02;15.75;;;;;;;27.35;52.76;100306.63;5001028;28;20058;-47
2023/09/08 09:13:19;;;;;;;27.15;16.92;;;;;;;27.35;52.84;100309.28;5001800;28;20046;-53
2023/09/08 09:15:49;;;;;;;27.38;15.82;;;;;;;27.50;52.97;100306.50;4991919;28;20140;-44
2023/09/08 09:18:15;;;;;;;;;;;;;;;27.89;52.93;100304.66;4997786;28;20081;-44
2023/09/08 09:20:54;;;;;;;27.10;15.70;;;;;;;28.22;51.03;100303.19;4994452;28;19941;-52
2023/09/08 09:26:04;;;;;;;26.23;17.90;;;;;;;29.03;50.92;100298.16;5026191;28;20383;-49
2023/09/08 09:28:31;;;;;;;21.85;16.50;;;;;;;29.41;49.58;100294.31;4977580;28;20135;-49
2023/09/08 09:30:59;;;;;;;25.77;16.67;;;;;;;29.66;48.50;100297.75;4979696;28;20053;-47
2023/09/08 09:33:27;;;;;;;23.75;15.48;;;;;;;29.87;48.32;100299.66;4979475;28;20059;-49
2023/09/08 09:35:55;;;;;;;27.65;17.05;;;;;;;30.06;47.73;100293.69;4994594;28;20141;-51
2023/09/08 09:38:27;;;;;;;24.15;17.75;;;;;;;30.24;47.81;100301.19;4983970;28;20053;-47
2023/09/08 09:40:55;;;;;;;24.13;15.98;;;;;;;30.37;47.23;100296.53;4977813;28;20058;-46
2023/09/08 09:43:22;;;;;;;24.02;16.98;;;;;;;30.48;47.00;100292.94;4977708;28;20532;-48
2023/09/08 09:45:49;;;;;;;23.73;14.73;;;;;;;30.55;46.55;100303.09;4979067;28;20471;-50
2023/09/08 09:48:19;;;;;;;23.58;15.85;;;;;;;30.60;46.34;100295.56;4982599;28;20042;-46
2023/09/08 09:50:46;;;;;;;24.38;15.15;;;;;;;30.61;46.34;100294.59;4979918;28;20054;-50
2023/09/08 09:53:15;;;;;;;23.85;14.73;;;;;;;30.52;45.45;100294.38;4977989;28;21740;-47
2023/09/08 09:55:45;;;;;;;23.42;16.83;;;;;;;30.40;46.14;100292.75;5009458;28;20074;-45
2023/09/08 09:58:13;;;;;;;28.25;16.73;;;;;;;30.31;46.19;100298.84;4973359;28;20042;-46
2023/09/08 10:00:41;;;;;;;27.25;15.82;;;;;;;30.18;45.91;100299.00;5002662;28;20078;-47
2023/09/08 10:03:08;;;;;;;21.77;16.55;;;;;;;30.12;46.86;100298.50;4976259;28;20050;-45
2023/09/08 10:05:37;;;;;;;22.65;16.15;;;;;;;30.07;46.47;100298.03;4979216;28;20050;-49
2023/09/08 10:08:04;;;;;;;21.17;16.05;;;;;;;30.02;45.81;100286.88;4975597;28;20047;-50
2023/09/08 10:10:34;;;;;;;21.15;15.00;;;;;;;30.04;46.56;100289.41;4977289;28;20051;-51
2023/09/08 10:13:06;;;;;;;25.10;15.07;;;;;;;30.12;47.01;100282.47;4977256;28;20779;-47
2023/09/08 10:15:34;;;;;;;20.45;14.32;;;;;;;30.25;47.25;100278.81;4985673;28;20046;-47
2023/09/08 10:18:05;;;;;;;22.15;15.05;;;;;;;30.34;46.69;100282.56;4975604;28;20047;-49
2023/09/08 10:20:34;;;;;;;18.98;11.52;;;;;;;30.42;46.62;100289.94;4981480;28;20408;-51
2023/09/08 10:23:06;;;;;;;;;;;;;;;30.50;47.25;100285.63;4976701;28;20097;-47
2023/09/08 10:25:38;;;;;;;25.60;15.27;;;;;;;30.66;45.89;100279.00;4972888;28;19929;-46
2023/09/08 10:28:06;;;;;;;23.38;15.60;;;;;;;30.78;46.22;100283.34;4954978;28;20567;-46
2023/09/08 10:30:33;;;;;;;19.02;13.73;;;;;;;30.85;45.63;100282.81;4967406;28;20066;-43
2023/09/08 10:33:01;;;;;;;22.17;14.85;;;;;;;30.94;45.80;100287.41;4974128;28;20062;-48
2023/09/08 10:35:29;;;;;;;22.15;11.77;;;;;;;30.96;45.94;100290.78;4975925;28;20421;-50
2023/09/08 10:38:33;;;;;;;19.95;13.98;;;;;;;30.95;46.06;100289.09;4961399;28;20110;-47
2023/09/08 10:43:57;;;;;;;17.95;10.50;;;;;;;31.13;45.27;100291.13;5115598;27;20400;-50
2023/09/08 10:46:27;;;;;;;18.05;10.68;;;;;;;31.32;44.68;100294.88;5054901;28;20053;-48
2023/09/08 10:49:00;;;;;;;17.85;11.07;;;;;;;31.47;44.43;100296.25;5056247;28;20064;-47
2023/09/08 10:51:27;;;;;;;13.13;8.75;;;;;;;31.60;44.90;100298.69;5058104;28;20045;-50
2023/09/08 10:53:53;;;;;;;13.85;10.10;;;;;;;31.78;44.25;100298.88;5066307;28;20067;-47
2023/09/08 10:56:20;;;;;;;16.63;9.38;;;;;;;31.89;43.95;100292.59;5083358;28;20055;-53
2023/09/08 10:58:50;;;;;;;16.08;9.05;;;;;;;32.00;43.91;100294.31;5075513;28;20048;-44
2023/09/08 11:01:19;;;;;;;13.02;8.60;;;;;;;32.24;43.58;100290.38;5074590;28;20060;-47
2023/09/08 11:03:49;;;;;;;11.38;8.32;;;;;;;32.43;43.76;100299.41;5075812;28;20056;-48
2023/09/08 11:06:18;;;;;;;11.90;8.60;;;;;;;32.59;42.46;100304.25;5076711;28;20072;-46
2023/09/08 11:08:45;;;;;;;11.57;8.15;;;;;;;32.68;43.02;100297.16;5074198;28;20052;-45
2023/09/08 11:11:14;;;;;;;12.93;8.00;;;;;;;32.81;42.77;100287.00;5070150;28;20056;-45
2023/09/08 11:13:41;;;;;;;14.30;8.30;;;;;;;32.97;42.40;100298.97;5070839;28;20041;-47
2023/09/08 11:16:08;;;;;;;11.77;7.32;;;;;;;33.13;42.61;100295.69;5070336;28;20135;-49
2023/09/08 11:18:35;;;;;;;14.82;7.75;;;;;;;33.15;41.10;100292.84;5071297;28;20105;-53
2023/09/08 11:21:08;;;;;;;16.08;8.60;;;;;;;33.16;41.67;100294.56;5077864;28;20052;-48
2023/09/08 11:23:39;;;;;;;12.75;8.25;;;;;;;33.18;41.70;100292.56;5073955;28;20057;-48